Wetterstation Vordersexau
Wetterdaten: Woche 31.07.23 - 06.08.23 (KW31)
Datum Zeit Temp. A. Feuchte A. Luftdruck Regen Wind Richtung Taupunkt Windchill Windben
31.07.2023 00:00 14,9 C 86 % 1013,7 hPa 0,0 l/m 1,1 km/h (1 Bft) O 12,6 C 14,9 C 2,5 km/h (1 Bft)
31.07.2023 01:00 14,1 C 89 % 1013,9 hPa 0,0 l/m 1,1 km/h (1 Bft) O-SO 12,3 C 14,1 C 2,5 km/h (1 Bft)
31.07.2023 02:00 13,7 C 91 % 1013,5 hPa 0,0 l/m 1,1 km/h (1 Bft) O-SO 12,3 C 13,7 C 2,5 km/h (1 Bft)
31.07.2023 03:00 13,1 C 93 % 1013,5 hPa 0,0 l/m 3,6 km/h (1 Bft) N 12,0 C 13,1 C 6,1 km/h (2 Bft)
31.07.2023 04:00 12,5 C 95 % 1013,2 hPa 0,0 l/m 0,0 km/h (0 Bft) O-SO 11,7 C 12,5 C 0,0 km/h (0 Bft)
31.07.2023 05:00 12,0 C 96 % 1012,7 hPa 0,0 l/m 2,5 km/h (1 Bft) N 11,4 C 12,0 C 3,6 km/h (1 Bft)
31.07.2023 06:00 12,0 C 96 % 1012,7 hPa 0,0 l/m 0,0 km/h (0 Bft) N 11,4 C 12,0 C 2,5 km/h (1 Bft)
31.07.2023 07:00 11,9 C 96 % 1012,5 hPa 0,0 l/m 0,0 km/h (0 Bft) N 11,3 C 11,9 C 0,0 km/h (0 Bft)
31.07.2023 08:00 12,9 C 95 % 1012,8 hPa 0,0 l/m 0,0 km/h (0 Bft) N 12,1 C 12,9 C 0,0 km/h (0 Bft)
31.07.2023 09:00 16,0 C 85 % 1012,2 hPa 0,0 l/m 0,0 km/h (0 Bft) S-SW 13,5 C 16,0 C 2,5 km/h (1 Bft)
31.07.2023 10:00 19,1 C 69 % 1012,4 hPa 0,0 l/m 8,6 km/h (2 Bft) W-SW 13,3 C 18,2 C 13,3 km/h (3 Bft)
31.07.2023 11:00 20,9 C 62 % 1012,2 hPa 0,0 l/m 11,2 km/h (2 Bft) S-SW 13,3 C 19,3 C 13,3 km/h (3 Bft)
31.07.2023 12:00 22,0 C 57 % 1011,4 hPa 0,0 l/m 11,2 km/h (2 Bft) W-SW 13,1 C 20,5 C 14,8 km/h (3 Bft)
31.07.2023 13:00 22,7 C 57 % 1100,0 hPa 0,0 l/m 15,8 km/h (3 Bft) W-SW 13,7 C 20,4 C 22,0 km/h (4 Bft)
31.07.2023 14:00 21,9 C 58 % 1010,8 hPa 0,0 l/m 14,8 km/h (3 Bft) W-SW 13,3 C 19,6 C 18,4 km/h (3 Bft)
31.07.2023 15:00 23,6 C 56 % 1009,6 hPa 0,0 l/m 13,3 km/h (3 Bft) W-SW 14,3 C 21,9 C 20,9 km/h (4 Bft)
31.07.2023 16:00 24,2 C 55 % 1009,0 hPa 0,0 l/m 13,3 km/h (3 Bft) SW 14,6 C 22,6 C 17,3 km/h (3 Bft)
31.07.2023 17:00 24,7 C 54 % 1008,3 hPa 0,0 l/m 7,2 km/h (2 Bft) SW 14,8 C 24,5 C 9,7 km/h (2 Bft)
31.07.2023 18:00 25,1 C 54 % 1007,6 hPa 0,0 l/m 8,6 km/h (2 Bft) W 15,1 C 24,6 C 13,3 km/h (3 Bft)
31.07.2023 19:00 23,6 C 55 % 1007,7 hPa 0,0 l/m 13,3 km/h (3 Bft) S-SW 14,0 C 21,9 C 22,0 km/h (4 Bft)
31.07.2023 20:00 23,1 C 60 % 1006,9 hPa 0,0 l/m 3,6 km/h (1 Bft) W-SW 14,9 C 23,1 C 6,1 km/h (2 Bft)
31.07.2023 21:00 22,6 C 63 % 1006,6 hPa 0,0 l/m 2,5 km/h (1 Bft) S 15,2 C 22,6 C 6,1 km/h (2 Bft)
31.07.2023 22:00 22,2 C 62 % 1006,1 hPa 0,0 l/m 3,6 km/h (1 Bft) SO 14,6 C 22,2 C 6,1 km/h (2 Bft)
31.07.2023 23:00 20,1 C 76 % 1005,8 hPa 0,0 l/m 1,1 km/h (1 Bft) SO 15,7 C 20,1 C 2,5 km/h (1 Bft)
01.08.2023 01:00 18,8 C 84 % 1004,4 hPa 0,6 l/m 6,1 km/h (2 Bft) SO 16,0 C 18,8 C 7,2 km/h (2 Bft)
01.08.2023 02:00 19,5 C 78 % 1003,3 hPa 0,3 l/m 5,0 km/h (1 Bft) W-SW 15,6 C 19,5 C 7,2 km/h (2 Bft)
01.08.2023 03:00 20,8 C 71 % 1002,6 hPa 0,0 l/m 5,0 km/h (1 Bft) SW 15,3 C 20,8 C 6,1 km/h (2 Bft)
01.08.2023 04:00 20,5 C 72 % 1002,1 hPa 0,0 l/m 9,7 km/h (2 Bft) W-SW 15,3 C 19,3 C 17,3 km/h (3 Bft)
01.08.2023 05:00 21,0 C 69 % 1001,8 hPa 0,0 l/m 9,7 km/h (2 Bft) W-SW 15,1 C 19,8 C 13,3 km/h (3 Bft)
01.08.2023 06:00 20,7 C 71 % 1002,3 hPa 0,0 l/m 13,3 km/h (3 Bft) SO 15,2 C 18,5 C 20,9 km/h (4 Bft)
01.08.2023 07:00 18,9 C 81 % 1000,8 hPa 0,3 l/m 14,8 km/h (3 Bft) S-SW 15,6 C 16,0 C 20,9 km/h (4 Bft)
01.08.2023 08:00 17,9 C 85 % 1001,1 hPa 2,1 l/m 12,2 km/h (2 Bft) SW 15,3 C 15,5 C 18,4 km/h (3 Bft)
01.08.2023 09:00 18,1 C 83 % 1001,1 hPa 0,0 l/m 13,3 km/h (3 Bft) W-SW 15,2 C 15,4 C 18,4 km/h (3 Bft)
01.08.2023 10:00 17,8 C 86 % 1001,4 hPa 0,3 l/m 13,3 km/h (3 Bft) S 15,4 C 15,1 C 22,0 km/h (4 Bft)
01.08.2023 11:00 17,0 C 94 % 1001,0 hPa 5,1 l/m 6,1 km/h (2 Bft) W-SW 16,0 C 17,0 C 9,7 km/h (2 Bft)
01.08.2023 12:00 18,0 C 91 % 1001,2 hPa 0,3 l/m 14,8 km/h (3 Bft) W-NW 16,5 C 14,9 C 22,0 km/h (4 Bft)
01.08.2023 13:00 18,9 C 87 % 1001,7 hPa 0,0 l/m 3,6 km/h (1 Bft) W 16,7 C 18,9 C 6,1 km/h (2 Bft)
01.08.2023 14:00 20,6 C 84 % 1001,7 hPa 0,0 l/m 11,2 km/h (2 Bft) NW 17,8 C 18,9 C 17,3 km/h (3 Bft)
01.08.2023 15:00 20,0 C 80 % 1001,9 hPa 0,3 l/m 2,5 km/h (1 Bft) SW 16,4 C 20,0 C 3,6 km/h (1 Bft)
01.08.2023 16:00 22,6 C 76 % 1001,8 hPa 0,0 l/m 5,0 km/h (1 Bft) W 18,1 C 22,6 C 7,2 km/h (2 Bft)
01.08.2023 17:00 21,7 C 75 % 1002,2 hPa 0,0 l/m 7,2 km/h (2 Bft) NW 17,1 C 21,4 C 11,2 km/h (2 Bft)
01.08.2023 18:00 22,5 C 61 % 1002,3 hPa 0,0 l/m 5,0 km/h (1 Bft) NW 14,6 C 22,5 C 7,2 km/h (2 Bft)
01.08.2023 19:00 22,1 C 63 % 1002,7 hPa 0,0 l/m 2,5 km/h (1 Bft) W-NW 14,7 C 22,1 C 6,1 km/h (2 Bft)
01.08.2023 20:00 21,2 C 60 % 1003,4 hPa 0,0 l/m 5,0 km/h (1 Bft) W-NW 13,1 C 21,2 C 9,7 km/h (2 Bft)
01.08.2023 21:00 20,6 C 59 % 1003,9 hPa 0,0 l/m 7,2 km/h (2 Bft) S 12,3 C 20,3 C 9,7 km/h (2 Bft)
01.08.2023 22:00 18,0 C 76 % 1004,6 hPa 0,0 l/m 3,6 km/h (1 Bft) N 13,7 C 18,0 C 3,6 km/h (1 Bft)
01.08.2023 23:00 17,9 C 75 % 1005,1 hPa 0,0 l/m 0,0 km/h (0 Bft) W 13,4 C 17,9 C 0,0 km/h (0 Bft)
02.08.2023 00:00 18,8 C 73 % 1005,0 hPa 0,0 l/m 8,6 km/h (2 Bft) S-SW 13,9 C 17,8 C 11,2 km/h (2 Bft)
02.08.2023 01:00 18,2 C 74 % 1004,6 hPa 0,0 l/m 3,6 km/h (1 Bft) S-SO 13,5 C 18,2 C 6,1 km/h (2 Bft)
02.08.2023 02:00 17,6 C 76 % 1004,6 hPa 0,0 l/m 3,6 km/h (1 Bft) S-SO 13,3 C 17,6 C 6,1 km/h (2 Bft)
02.08.2023 03:00 17,8 C 73 % 1003,7 hPa 0,0 l/m 5,0 km/h (1 Bft) SO 12,9 C 17,8 C 6,1 km/h (2 Bft)
02.08.2023 04:00 17,1 C 76 % 1003,1 hPa 0,0 l/m 6,1 km/h (2 Bft) SW 12,8 C 17,1 C 7,2 km/h (2 Bft)
02.08.2023 05:00 17,4 C 77 % 1002,2 hPa 0,0 l/m 1,1 km/h (1 Bft) N 13,3 C 17,4 C 3,6 km/h (1 Bft)
02.08.2023 06:00 15,5 C 95 % 1002,2 hPa 1,5 l/m 0,0 km/h (0 Bft) SO 14,7 C 15,5 C 2,5 km/h (1 Bft)
02.08.2023 07:00 15,5 C 94 % 1000,9 hPa 2,4 l/m 3,6 km/h (1 Bft) N 14,5 C 15,5 C 6,1 km/h (2 Bft)
02.08.2023 08:00 16,1 C 93 % 1000,8 hPa 1,5 l/m 0,0 km/h (0 Bft) S-SO 15,0 C 16,1 C 2,5 km/h (1 Bft)
02.08.2023 09:00 16,8 C 91 % 999,7 hPa 1,8 l/m 5,0 km/h (1 Bft) W 15,3 C 16,8 C 7,2 km/h (2 Bft)
02.08.2023 10:00 17,9 C 87 % 999,2 hPa 0,0 l/m 2,5 km/h (1 Bft) W 15,7 C 17,9 C 3,6 km/h (1 Bft)
02.08.2023 11:00 19,5 C 81 % 998,6 hPa 0,0 l/m 7,2 km/h (2 Bft) W 16,1 C 19,2 C 11,2 km/h (2 Bft)
02.08.2023 12:00 20,4 C 78 % 998,2 hPa 0,0 l/m 2,5 km/h (1 Bft) SW 16,4 C 20,4 C 6,1 km/h (2 Bft)
02.08.2023 13:00 23,4 C 69 % 997,4 hPa 0,0 l/m 6,1 km/h (2 Bft) SW 17,4 C 23,4 C 13,3 km/h (3 Bft)
02.08.2023 14:00 24,9 C 65 % 996,5 hPa 0,0 l/m 20,9 km/h (4 Bft) W-SW 17,9 C 22,4 C 29,5 km/h (5 Bft)
02.08.2023 15:00 25,2 C 64 % 995,4 hPa 0,0 l/m 11,2 km/h (2 Bft) W 17,9 C 24,2 C 17,3 km/h (3 Bft)
02.08.2023 16:00 23,9 C 70 % 994,8 hPa 0,0 l/m 3,6 km/h (1 Bft) S-SW 18,1 C 23,9 C 6,1 km/h (2 Bft)
02.08.2023 17:00 25,9 C 63 % 993,7 hPa 0,0 l/m 8,6 km/h (2 Bft) W 18,3 C 25,4 C 13,3 km/h (3 Bft)
02.08.2023 18:00 26,7 C 58 % 993,4 hPa 0,0 l/m 13,3 km/h (3 Bft) W 17,7 C 25,6 C 22,0 km/h (4 Bft)
02.08.2023 19:00 26,0 C 60 % 993,5 hPa 0,0 l/m 15,8 km/h (3 Bft) W-NW 17,6 C 24,4 C 24,5 km/h (4 Bft)
02.08.2023 20:00 20,8 C 86 % 995,9 hPa 1,8 l/m 9,7 km/h (2 Bft) S 18,4 C 19,6 C 14,8 km/h (3 Bft)
02.08.2023 21:00 19,0 C 94 % 996,3 hPa 6,0 l/m 17,3 km/h (3 Bft) S 18,0 C 15,5 C 22,0 km/h (4 Bft)
02.08.2023 22:00 19,7 C 88 % 997,1 hPa 0,0 l/m 13,3 km/h (3 Bft) S-SW 17,7 C 17,3 C 18,4 km/h (3 Bft)
02.08.2023 23:00 19,4 C 83 % 997,7 hPa 0,0 l/m 7,2 km/h (2 Bft) W-SW 16,4 C 19,1 C 13,3 km/h (3 Bft)
03.08.2023 00:00 19,7 C 81 % 998,7 hPa 0,0 l/m 6,1 km/h (2 Bft) SW 16,3 C 19,7 C 9,7 km/h (2 Bft)
03.08.2023 01:00 19,4 C 80 % 999,4 hPa 0,0 l/m 9,7 km/h (2 Bft) SW 15,9 C 18,1 C 14,8 km/h (3 Bft)
03.08.2023 02:00 19,7 C 73 % 1000,0 hPa 0,0 l/m 15,8 km/h (3 Bft) W-SW 14,7 C 16,7 C 24,5 km/h (4 Bft)
03.08.2023 03:00 18,9 C 73 % 1000,6 hPa 0,0 l/m 13,3 km/h (3 Bft) W 13,9 C 16,4 C 28,1 km/h (4 Bft)
03.08.2023 04:00 18,8 C 69 % 1000,6 hPa 0,0 l/m 15,8 km/h (3 Bft) W-SW 13,0 C 15,6 C 24,5 km/h (4 Bft)
03.08.2023 05:00 18,4 C 69 % 1001,0 hPa 0,0 l/m 22,0 km/h (4 Bft) W-SW 12,6 C 13,7 C 33,1 km/h (5 Bft)
03.08.2023 06:00 17,0 C 77 % 1001,6 hPa 0,0 l/m 15,8 km/h (3 Bft) W 12,9 C 13,4 C 20,9 km/h (4 Bft)
03.08.2023 07:00 17,7 C 72 % 1001,7 hPa 0,0 l/m 12,2 km/h (2 Bft) SW 12,6 C 15,3 C 18,4 km/h (3 Bft)
03.08.2023 08:00 17,1 C 75 % 1002,6 hPa 0,0 l/m 12,2 km/h (2 Bft) W-SW 12,6 C 14,6 C 17,3 km/h (3 Bft)
03.08.2023 09:00 17,7 C 70 % 1003,1 hPa 0,0 l/m 15,8 km/h (3 Bft) S-SW 12,2 C 14,2 C 22,0 km/h (4 Bft)
03.08.2023 10:00 18,0 C 72 % 1003,9 hPa 0,0 l/m 13,3 km/h (3 Bft) W-NW 12,9 C 15,3 C 20,9 km/h (4 Bft)
03.08.2023 11:00 18,6 C 69 % 1004,0 hPa 0,0 l/m 17,3 km/h (3 Bft) SW 12,8 C 15,0 C 22,0 km/h (4 Bft)
03.08.2023 12:00 19,9 C 65 % 1003,9 hPa 0,0 l/m 11,2 km/h (2 Bft) W 13,1 C 18,2 C 17,3 km/h (3 Bft)
03.08.2023 13:00 21,9 C 61 % 1004,0 hPa 0,0 l/m 24,5 km/h (4 Bft) W-SW 14,0 C 18,0 C 36,7 km/h (5 Bft)
03.08.2023 14:00 22,5 C 59 % 1004,2 hPa 0,0 l/m 20,9 km/h (4 Bft) SW 14,1 C 19,3 C 29,5 km/h (5 Bft)
03.08.2023 15:00 21,4 C 60 % 1004,6 hPa 0,0 l/m 19,4 km/h (3 Bft) W 13,3 C 18,1 C 31,7 km/h (5 Bft)
03.08.2023 16:00 21,5 C 62 % 1004,7 hPa 0,0 l/m 15,8 km/h (3 Bft) SW 13,9 C 18,9 C 20,9 km/h (4 Bft)
03.08.2023 17:00 23,2 C 57 % 1004,6 hPa 0,0 l/m 14,8 km/h (3 Bft) W-SW 14,2 C 21,2 C 20,9 km/h (4 Bft)
03.08.2023 18:00 22,4 C 60 % 1004,6 hPa 0,0 l/m 13,3 km/h (3 Bft) W 14,2 C 20,5 C 17,3 km/h (3 Bft)
03.08.2023 19:00 21,4 C 61 % 1004,9 hPa 0,0 l/m 14,8 km/h (3 Bft) W-SW 13,6 C 19,0 C 18,4 km/h (3 Bft)
03.08.2023 20:00 20,4 C 63 % 1005,0 hPa 0,0 l/m 6,1 km/h (2 Bft) S-SW 13,1 C 20,4 C 7,2 km/h (2 Bft)
03.08.2023 21:00 19,4 C 69 % 1005,1 hPa 0,0 l/m 5,0 km/h (1 Bft) S-SW 13,6 C 19,4 C 7,2 km/h (2 Bft)
03.08.2023 22:00 17,5 C 77 % 1005,5 hPa 0,0 l/m 1,1 km/h (1 Bft) W-NW 13,4 C 17,5 C 2,5 km/h (1 Bft)
03.08.2023 23:00 15,6 C 86 % 1006,1 hPa 0,0 l/m 1,1 km/h (1 Bft) NO 13,3 C 15,6 C 2,5 km/h (1 Bft)
04.08.2023 00:00 15,2 C 86 % 1006,1 hPa 0,0 l/m 2,5 km/h (1 Bft) NO 12,9 C 15,2 C 3,6 km/h (1 Bft)
04.08.2023 01:00 13,8 C 91 % 1006,7 hPa 0,0 l/m 0,0 km/h (0 Bft) N 12,4 C 13,8 C 2,5 km/h (1 Bft)
04.08.2023 02:00 13,1 C 93 % 1006,9 hPa 0,0 l/m 0,0 km/h (0 Bft) N 12,0 C 13,1 C 0,0 km/h (0 Bft)
04.08.2023 03:00 12,7 C 95 % 1006,8 hPa 0,0 l/m 0,0 km/h (0 Bft) N 11,9 C 12,7 C 2,5 km/h (1 Bft)
04.08.2023 04:00 12,9 C 95 % 1006,6 hPa 0,0 l/m 0,0 km/h (0 Bft) SO 12,1 C 12,9 C 0,0 km/h (0 Bft)
04.08.2023 05:00 13,3 C 92 % 1006,7 hPa 0,0 l/m 1,1 km/h (1 Bft) N 12,0 C 13,3 C 3,6 km/h (1 Bft)
04.08.2023 06:00 13,4 C 94 % 1006,6 hPa 0,0 l/m 0,0 km/h (0 Bft) O-SO 12,5 C 13,4 C 0,0 km/h (0 Bft)
04.08.2023 07:00 13,7 C 93 % 1007,0 hPa 0,0 l/m 1,1 km/h (1 Bft) N 12,6 C 13,7 C 3,6 km/h (1 Bft)
04.08.2023 08:00 14,6 C 93 % 1007,2 hPa 0,0 l/m 0,0 km/h (0 Bft) O-SO 13,5 C 14,6 C 2,5 km/h (1 Bft)
04.08.2023 09:00 16,2 C 91 % 1007,5 hPa 0,0 l/m 2,5 km/h (1 Bft) W 14,7 C 16,2 C 3,6 km/h (1 Bft)
04.08.2023 10:00 17,5 C 83 % 1007,6 hPa 0,0 l/m 3,6 km/h (1 Bft) W 14,6 C 17,5 C 7,2 km/h (2 Bft)
04.08.2023 11:00 18,3 C 79 % 1008,0 hPa 0,0 l/m 9,7 km/h (2 Bft) S 14,6 C 16,9 C 17,3 km/h (3 Bft)
04.08.2023 12:00 20,2 C 73 % 1008,2 hPa 0,0 l/m 11,2 km/h (2 Bft) S-SW 15,2 C 18,5 C 13,3 km/h (3 Bft)
04.08.2023 13:00 20,5 C 70 % 1007,8 hPa 0,0 l/m 7,2 km/h (2 Bft) W 14,8 C 20,2 C 11,2 km/h (2 Bft)
04.08.2023 14:00 19,9 C 74 % 1008,0 hPa 0,0 l/m 11,2 km/h (2 Bft) NW 15,1 C 18,2 C 13,3 km/h (3 Bft)
04.08.2023 15:00 16,8 C 92 % 1009,0 hPa 0,6 l/m 2,5 km/h (1 Bft) N-NO 15,5 C 16,8 C 3,6 km/h (1 Bft)
04.08.2023 16:00 18,7 C 87 % 1009,3 hPa 0,9 l/m 2,5 km/h (1 Bft) NO 16,5 C 18,7 C 6,1 km/h (2 Bft)
04.08.2023 17:00 18,7 C 81 % 1009,2 hPa 0,0 l/m 1,1 km/h (1 Bft) NW 15,4 C 18,7 C 6,1 km/h (2 Bft)
04.08.2023 18:00 17,6 C 82 % 1010,0 hPa 0,0 l/m 7,2 km/h (2 Bft) NO 14,5 C 17,2 C 11,2 km/h (2 Bft)
04.08.2023 19:00 15,9 C 91 % 1010,7 hPa 0,0 l/m 1,1 km/h (1 Bft) N 14,4 C 15,9 C 3,6 km/h (1 Bft)
04.08.2023 20:00 16,3 C 87 % 1010,7 hPa 0,3 l/m 0,0 km/h (0 Bft) N 14,1 C 16,3 C 0,0 km/h (0 Bft)
04.08.2023 21:00 15,8 C 89 % 1011,6 hPa 0,0 l/m 0,0 km/h (0 Bft) W-NW 14,0 C 15,8 C 0,0 km/h (0 Bft)
04.08.2023 22:00 15,2 C 94 % 1011,7 hPa 0,0 l/m 1,1 km/h (1 Bft) N 14,2 C 15,2 C 2,5 km/h (1 Bft)
04.08.2023 23:00 14,8 C 96 % 1012,2 hPa 0,0 l/m 0,0 km/h (0 Bft) N 14,2 C 14,8 C 0,0 km/h (0 Bft)
05.08.2023 00:00 14,5 C 96 % 1012,9 hPa 0,0 l/m 0,0 km/h (0 Bft) N 13,9 C 14,5 C 0,0 km/h (0 Bft)
05.08.2023 01:00 14,5 C 97 % 1012,8 hPa 0,0 l/m 0,0 km/h (0 Bft) N 14,0 C 14,5 C 0,0 km/h (0 Bft)
05.08.2023 02:00 14,2 C 97 % 1012,3 hPa 0,0 l/m 0,0 km/h (0 Bft) N 13,7 C 14,2 C 0,0 km/h (0 Bft)
05.08.2023 03:00 13,5 C 98 % 1012,4 hPa 0,0 l/m 0,0 km/h (0 Bft) N 13,2 C 13,5 C 0,0 km/h (0 Bft)
05.08.2023 04:00 12,7 C 98 % 1012,3 hPa 0,0 l/m 0,0 km/h (0 Bft) N 12,4 C 12,7 C 0,0 km/h (0 Bft)
05.08.2023 05:00 12,9 C 99 % 1012,1 hPa 0,0 l/m 0,0 km/h (0 Bft) N 12,7 C 12,9 C 0,0 km/h (0 Bft)
05.08.2023 06:00 12,7 C 99 % 1011,8 hPa 0,0 l/m 0,0 km/h (0 Bft) N 12,5 C 12,7 C 0,0 km/h (0 Bft)
05.08.2023 07:00 12,5 C 99 % 1012,2 hPa 0,0 l/m 0,0 km/h (0 Bft) N 12,3 C 12,5 C 0,0 km/h (0 Bft)
05.08.2023 08:00 12,9 C 99 % 1012,5 hPa 0,0 l/m 0,0 km/h (0 Bft) N 12,7 C 12,9 C 0,0 km/h (0 Bft)
05.08.2023 09:00 14,7 C 98 % 1012,2 hPa 0,0 l/m 0,0 km/h (0 Bft) SO 14,4 C 14,7 C 0,0 km/h (0 Bft)
05.08.2023 10:00 16,3 C 88 % 1012,2 hPa 0,0 l/m 1,1 km/h (1 Bft) NW 14,3 C 16,3 C 3,6 km/h (1 Bft)
05.08.2023 11:00 16,8 C 86 % 1011,5 hPa 0,0 l/m 2,5 km/h (1 Bft) NW 14,4 C 16,8 C 3,6 km/h (1 Bft)
05.08.2023 12:00 19,7 C 73 % 1011,3 hPa 0,0 l/m 3,6 km/h (1 Bft) NW 14,7 C 19,7 C 6,1 km/h (2 Bft)
05.08.2023 13:00 20,1 C 73 % 1010,7 hPa 0,0 l/m 2,5 km/h (1 Bft) NW 15,1 C 20,1 C 6,1 km/h (2 Bft)
05.08.2023 14:00 20,8 C 69 % 1009,7 hPa 0,0 l/m 6,1 km/h (2 Bft) W-SW 14,9 C 20,8 C 7,2 km/h (2 Bft)
05.08.2023 15:00 22,4 C 57 % 1009,2 hPa 0,0 l/m 7,2 km/h (2 Bft) W 13,5 C 22,1 C 13,3 km/h (3 Bft)
05.08.2023 16:00 23,3 C 57 % 1008,4 hPa 0,0 l/m 3,6 km/h (1 Bft) W 14,3 C 23,3 C 7,2 km/h (2 Bft)
05.08.2023 17:00 23,4 C 53 % 1007,6 hPa 0,0 l/m 5,0 km/h (1 Bft) SW 13,3 C 23,4 C 6,1 km/h (2 Bft)
05.08.2023 18:00 23,2 C 53 % 1006,9 hPa 0,0 l/m 7,2 km/h (2 Bft) W 13,1 C 23,0 C 9,7 km/h (2 Bft)
05.08.2023 19:00 22,3 C 53 % 1006,7 hPa 0,0 l/m 9,7 km/h (2 Bft) SW 12,2 C 21,3 C 13,3 km/h (3 Bft)
05.08.2023 20:00 21,6 C 56 % 1005,9 hPa 0,0 l/m 9,7 km/h (2 Bft) W 12,4 C 20,5 C 13,3 km/h (3 Bft)
05.08.2023 21:00 20,6 C 60 % 1006,3 hPa 0,0 l/m 8,6 km/h (2 Bft) W 12,6 C 19,8 C 13,3 km/h (3 Bft)
05.08.2023 22:00 19,5 C 64 % 1006,5 hPa 0,0 l/m 5,0 km/h (1 Bft) SW 12,5 C 19,5 C 9,7 km/h (2 Bft)
05.08.2023 23:00 19,3 C 67 % 1006,3 hPa 0,0 l/m 6,1 km/h (2 Bft) SW 13,0 C 19,3 C 9,7 km/h (2 Bft)
06.08.2023 00:00 19,0 C 70 % 1006,1 hPa 0,0 l/m 15,8 km/h (3 Bft) S-SW 13,4 C 15,8 C 22,0 km/h (4 Bft)
06.08.2023 01:00 17,3 C 74 % 1006,2 hPa 0,0 l/m 6,1 km/h (2 Bft) W-SW 12,6 C 17,3 C 9,7 km/h (2 Bft)
06.08.2023 02:00 17,2 C 73 % 1005,9 hPa 0,0 l/m 3,6 km/h (1 Bft) S-SW 12,3 C 17,2 C 6,1 km/h (2 Bft)
06.08.2023 03:00 16,2 C 80 % 1005,3 hPa 0,0 l/m 9,7 km/h (2 Bft) W 12,7 C 14,6 C 17,3 km/h (3 Bft)
06.08.2023 04:00 16,9 C 77 % 1005,0 hPa 0,0 l/m 7,2 km/h (2 Bft) W 12,8 C 16,5 C 9,7 km/h (2 Bft)
06.08.2023 05:00 14,7 C 92 % 1004,9 hPa 2,1 l/m 7,2 km/h (2 Bft) S-SW 13,4 C 14,2 C 11,2 km/h (2 Bft)
06.08.2023 06:00 14,1 C 92 % 1004,9 hPa 0,6 l/m 8,6 km/h (2 Bft) W-SW 12,8 C 12,8 C 13,3 km/h (3 Bft)
06.08.2023 07:00 13,7 C 88 % 1005,1 hPa 0,0 l/m 9,7 km/h (2 Bft) W-SW 11,7 C 11,8 C 13,3 km/h (3 Bft)
06.08.2023 08:00 13,0 C 93 % 1005,5 hPa 0,3 l/m 15,8 km/h (3 Bft) SW 11,9 C 8,5 C 18,4 km/h (3 Bft)
06.08.2023 09:00 13,1 C 92 % 1006,0 hPa 0,6 l/m 12,2 km/h (2 Bft) SW 11,8 C 10,0 C 18,4 km/h (3 Bft)
06.08.2023 10:00 13,4 C 91 % 1006,1 hPa 1,2 l/m 12,2 km/h (2 Bft) S-SW 12,0 C 10,3 C 17,3 km/h (3 Bft)
06.08.2023 11:00 13,8 C 91 % 1006,8 hPa 0,6 l/m 13,3 km/h (3 Bft) SW 12,4 C 10,4 C 25,6 km/h (4 Bft)
06.08.2023 12:00 13,9 C 91 % 1007,3 hPa 0,0 l/m 13,3 km/h (3 Bft) SW 12,5 C 10,5 C 18,4 km/h (3 Bft)
06.08.2023 13:00 14,4 C 88 % 1007,4 hPa 0,0 l/m 17,3 km/h (3 Bft) W 12,4 C 9,7 C 25,6 km/h (4 Bft)
06.08.2023 14:00 14,0 C 95 % 1008,7 hPa 3,0 l/m 5,0 km/h (1 Bft) W 13,2 C 14,0 C 7,2 km/h (2 Bft)
06.08.2023 15:00 13,6 C 92 % 1008,9 hPa 0,3 l/m 8,6 km/h (2 Bft) W-SW 12,3 C 12,3 C 13,3 km/h (3 Bft)
06.08.2023 16:00 16,8 C 78 % 1009,3 hPa 0,9 l/m 13,3 km/h (3 Bft) W 12,9 C 13,9 C 18,4 km/h (3 Bft)
06.08.2023 17:00 15,7 C 74 % 1009,7 hPa 0,0 l/m 15,8 km/h (3 Bft) W-NW 11,1 C 11,8 C 22,0 km/h (4 Bft)
06.08.2023 18:00 15,8 C 81 % 1010,3 hPa 0,0 l/m 7,2 km/h (2 Bft) W 12,5 C 15,4 C 9,7 km/h (2 Bft)
06.08.2023 19:00 15,4 C 76 % 1011,1 hPa 0,6 l/m 6,1 km/h (2 Bft) W-NW 11,2 C 15,4 C 7,2 km/h (2 Bft)
06.08.2023 20:00 15,1 C 77 % 1011,8 hPa 0,0 l/m 3,6 km/h (1 Bft) W 11,1 C 15,1 C 6,1 km/h (2 Bft)
06.08.2023 21:00 14,2 C 82 % 1012,1 hPa 0,0 l/m 1,1 km/h (1 Bft) N 11,2 C 14,2 C 2,5 km/h (1 Bft)
06.08.2023 22:00 13,0 C 93 % 1012,3 hPa 0,0 l/m 0,0 km/h (0 Bft) NW 11,9 C 13,0 C 0,0 km/h (0 Bft)
06.08.2023 23:00 12,2 C 93 % 1013,0 hPa 1,5 l/m 1,1 km/h (1 Bft) N 11,1 C 12,2 C 2,5 km/h (1 Bft)
Min-Datum _ 31.07.23 05.08.23 02.08.23 - 31.07.23 - 06.08.23 06.08.23 31.07.23
_ Min-Zeit 07:21 17:21 18:21 - 04:21 - 17:21 08:21 04:21
Minimum _ 11,9 C 53 % 993,4 hPa - 0,0 km/h (0 Bft) - 11,1 C 8,5 C 0,0 km/h (0 Bft)
Max-Datum _ 02.08.23 05.08.23 31.07.23 02.08.23 03.08.23 - 02.08.23 02.08.23 03.08.23
_ Max-Zeit 18:21 05:21 13:21 21:21 13:21 - 20:21 18:21 13:21
Maximum _ 26,7 C 99 % 1100,0 hPa 6,0 l/m 24,5 km/h
W-SW (4 Bft)
- 18,4 C 25,6 C 36,7 km/h
W-SW (5 Bft)
Durchschnitt _ 18,1 C 78 % 1006,5 hPa #37,8 l/m 7,0 km/h (2 Bft) W 14,0 C 17,2 C 10,6 km/h (2 Bft)
www.sexauwetter.de